Terminal Aerodrome Forecast
Issued by NWS

Home | Current Version | Previous Version | Text Only | Print | Product List | Glossary On
Versions: 1 2 3 4 5 6 7 8 9 10 11 12 13 14 15 16 17 18
000
FTUS41 KPBZ 250500 CCA
TAFLBE
TAF COR
KLBE 250547Z 2506/2606 24008KT 5SM BR OVC008
     FM251000 26007KT P6SM -SHSN OVC015
     FM251600 VRB03KT 2SM -SN OVC007
     FM252000 03005KT 3/4SM -SN OVC004=

USA.gov is the U.S. government's official web portal to all federal, state and local government web resources and services.